createdAt,value
2019-03-28T00:00:22.689Z,26.1
2019-03-28T00:01:12.142Z,25.9
2019-03-28T00:02:03.126Z,25.9
2019-03-28T00:02:52.243Z,25.8
2019-03-28T00:03:42.326Z,25.6
2019-03-28T00:04:32.094Z,25.6
2019-03-28T00:05:22.488Z,25.5
2019-03-28T00:06:13.073Z,25.5
2019-03-28T00:07:02.297Z,25.5
2019-03-28T00:07:52.890Z,25.4
2019-03-28T00:08:42.128Z,25.3
2019-03-28T00:09:33.306Z,25.3
2019-03-28T00:10:23.633Z,25.2
2019-03-28T00:11:13.253Z,25.1
2019-03-28T00:12:03.958Z,25
2019-03-28T00:12:53.266Z,24.9
2019-03-28T00:13:43.304Z,24.8
2019-03-28T00:14:33.687Z,24.8
2019-03-28T00:15:23.428Z,24.6
2019-03-28T00:16:13.510Z,24.6
2019-03-28T00:17:02.545Z,24.8
2019-03-28T00:17:53.223Z,24.8
2019-03-28T00:18:43.302Z,24.7
2019-03-28T00:19:32.522Z,24.6
2019-03-28T00:20:24.308Z,24.6
2019-03-28T00:21:12.625Z,24.5
2019-03-28T00:22:06.744Z,24.4
2019-03-28T00:22:53.570Z,24.3
2019-03-28T00:23:44.110Z,24.3
2019-03-28T00:24:34.210Z,24.2
2019-03-28T00:25:23.421Z,24.1
2019-03-28T00:26:14.059Z,24
2019-03-28T00:27:04.490Z,24.2
2019-03-28T00:27:54.655Z,24.3
2019-03-28T00:28:45.259Z,24.3
2019-03-28T00:29:34.867Z,24.2
2019-03-28T00:30:25.073Z,24.1
2019-03-28T00:31:15.205Z,24.1
2019-03-28T00:32:05.279Z,24
2019-03-28T00:32:54.997Z,23.9
2019-03-28T00:33:43.280Z,23.8
2019-03-28T00:34:34.167Z,23.8
2019-03-28T00:35:24.432Z,23.7
2019-03-28T00:36:14.751Z,23.6
2019-03-28T00:37:08.994Z,23.6
2019-03-28T00:37:55.619Z,23.9
2019-03-28T00:38:45.198Z,24.1
2019-03-28T00:39:34.892Z,24.6
2019-03-28T00:40:25.794Z,25.1
2019-03-28T00:41:15.121Z,25.4
2019-03-28T00:42:04.051Z,25.8
2019-03-28T00:42:55.686Z,26
2019-03-28T00:43:44.743Z,26.3
2019-03-28T00:44:35.533Z,26.6
2019-03-28T00:45:25.232Z,26.9
2019-03-28T00:46:15.663Z,27.2
2019-03-28T00:47:05.483Z,27.4
2019-03-28T00:47:55.514Z,27.7
2019-03-28T00:48:46.093Z,27.9
2019-03-28T00:49:36.180Z,28.1
2019-03-28T00:50:26.234Z,28.3
2019-03-28T00:51:16.090Z,28.5
2019-03-28T00:52:06.153Z,28.6
2019-03-28T00:52:56.458Z,28.5
2019-03-28T00:53:46.583Z,28.4
2019-03-28T00:54:36.058Z,28.3
2019-03-28T00:55:26.955Z,28.3
2019-03-28T00:56:16.393Z,28.1
2019-03-28T00:57:06.901Z,28
2019-03-28T00:57:56.065Z,27.9
2019-03-28T00:59:36.443Z,27.7
2019-03-28T01:00:25.427Z,27.6
2019-03-28T01:01:16.555Z,27
2019-03-28T01:02:06.376Z,26.6
2019-03-28T01:02:56.428Z,26.4
2019-03-28T01:03:47.058Z,26.3
2019-03-28T01:04:36.513Z,26.1
2019-03-28T01:05:26.907Z,26
2019-03-28T01:06:16.372Z,25.9
2019-03-28T01:07:06.248Z,25.8
2019-03-28T01:07:56.868Z,25.7
2019-03-28T01:08:47.167Z,25.6
2019-03-28T01:09:37.527Z,25.5
2019-03-28T01:10:28.167Z,25.4
2019-03-28T01:11:18.403Z,25.4
2019-03-28T01:12:07.790Z,25.5
2019-03-28T01:12:58.415Z,25.5
2019-03-28T01:13:48.562Z,25.4
2019-03-28T01:14:37.639Z,25.4
2019-03-28T01:15:27.862Z,25.3
2019-03-28T01:16:18.066Z,25.2
2019-03-28T01:17:07.857Z,25.1
2019-03-28T01:17:59.004Z,25
2019-03-28T01:18:48.696Z,24.9
2019-03-28T01:19:38.566Z,24.8
2019-03-28T01:20:28.275Z,24.8
2019-03-28T01:21:18.837Z,24.7
2019-03-28T01:22:08.811Z,24.8
2019-03-28T01:22:59.149Z,24.8
2019-03-28T01:23:49.204Z,24.8
2019-03-28T01:24:38.749Z,24.7
2019-03-28T01:25:29.446Z,24.6
2019-03-28T01:26:19.451Z,24.6
2019-03-28T01:27:08.884Z,24.5
2019-03-28T01:27:59.411Z,24.4
2019-03-28T01:28:49.619Z,24.3
2019-03-28T01:29:39.256Z,24.3
2019-03-28T01:30:28.911Z,24.2
2019-03-28T01:31:18.195Z,24.1
2019-03-28T01:32:09.966Z,24
2019-03-28T01:32:59.914Z,24.3
2019-03-28T01:33:49.628Z,24.4
2019-03-28T01:34:39.905Z,24.9
2019-03-28T01:35:30.159Z,25.3
2019-03-28T01:36:20.341Z,25.6
2019-03-28T01:37:09.956Z,25.8
2019-03-28T01:37:59.980Z,26
2019-03-28T01:38:50.245Z,26.3
2019-03-28T01:39:40.455Z,26.6
2019-03-28T01:40:29.985Z,26.9
2019-03-28T01:41:20.598Z,27.1
2019-03-28T01:42:11.003Z,27.4
2019-03-28T01:42:59.935Z,27.6
2019-03-28T01:44:39.368Z,28
2019-03-28T01:45:30.008Z,28.2
2019-03-28T01:46:20.008Z,28.4
2019-03-28T01:47:10.358Z,28.6
2019-03-28T01:47:59.013Z,28.6
2019-03-28T01:48:50.525Z,28.5
2019-03-28T01:49:40.273Z,28.4
2019-03-28T01:50:30.032Z,28.3
2019-03-28T01:51:20.155Z,28.2
2019-03-28T01:52:13.917Z,28.1
2019-03-28T01:53:01.058Z,27.9
2019-03-28T01:54:40.352Z,27.8
2019-03-28T01:55:30.927Z,27.6
2019-03-28T01:56:21.010Z,27.5
2019-03-28T01:57:21.145Z,27
2019-03-28T01:58:00.562Z,26.6
2019-03-28T01:58:51.202Z,26.4
2019-03-28T01:59:41.242Z,26.2
2019-03-28T02:00:31.292Z,26.1
2019-03-28T02:01:21.127Z,25.9
2019-03-28T02:02:10.864Z,25.8
2019-03-28T02:03:01.786Z,25.7
2019-03-28T02:03:51.045Z,25.6
2019-03-28T02:04:41.677Z,25.5
2019-03-28T02:05:31.435Z,25.4
2019-03-28T02:06:20.880Z,25.4
2019-03-28T02:07:11.252Z,25.3
2019-03-28T02:08:04.215Z,25.4
2019-03-28T02:08:51.717Z,25.4
2019-03-28T02:09:42.312Z,25.4
2019-03-28T02:10:32.017Z,25.3
2019-03-28T02:11:22.484Z,25.3
2019-03-28T02:12:12.584Z,25.1
2019-03-28T02:13:03.135Z,25.1
2019-03-28T02:13:52.303Z,25
2019-03-28T02:14:43.153Z,24.9
2019-03-28T02:15:33.109Z,24.8
2019-03-28T02:16:22.841Z,24.8
2019-03-28T02:17:12.089Z,24.6
2019-03-28T02:18:01.741Z,24.6
2019-03-28T02:18:51.239Z,24.8
2019-03-28T02:19:42.966Z,24.7
2019-03-28T02:20:33.032Z,24.6
2019-03-28T02:21:22.864Z,24.6
2019-03-28T02:22:12.694Z,24.5
2019-03-28T02:23:02.738Z,24.4
2019-03-28T02:23:51.693Z,24.3
2019-03-28T02:24:41.809Z,24.3
2019-03-28T02:25:32.626Z,24.2
2019-03-28T02:26:22.606Z,24.1
2019-03-28T02:27:27.036Z,24.3
2019-03-28T02:28:02.561Z,24.5
2019-03-28T02:28:53.361Z,24.9
2019-03-28T02:29:42.350Z,25.3
2019-03-28T02:30:34.958Z,25.4
2019-03-28T02:31:25.200Z,25.8
2019-03-28T02:32:13.678Z,25.9
2019-03-28T02:33:04.458Z,26.1
2019-03-28T02:33:53.001Z,26.4
2019-03-28T02:34:43.359Z,26.7
2019-03-28T02:35:32.815Z,26.9
2019-03-28T02:36:24.071Z,27.1
2019-03-28T02:37:13.888Z,27.3
2019-03-28T02:38:04.027Z,27.5
2019-03-28T02:38:54.441Z,27.8
2019-03-28T02:39:43.993Z,27.9
2019-03-28T02:40:34.070Z,28.1
2019-03-28T02:41:24.183Z,28.2
2019-03-28T02:42:13.903Z,28.4
2019-03-28T02:43:04.052Z,28.5
2019-03-28T02:43:54.602Z,28.6
2019-03-28T02:44:45.596Z,28.5
2019-03-28T02:45:36.275Z,28.4
2019-03-28T02:46:25.144Z,28.3
2019-03-28T02:47:14.631Z,28.2
2019-03-28T02:48:05.193Z,28.1
2019-03-28T02:48:56.795Z,27.9
2019-03-28T02:50:35.075Z,27.8
2019-03-28T02:51:25.445Z,27.6
2019-03-28T02:52:14.847Z,27.5
2019-03-28T02:53:04.415Z,27.3
2019-03-28T02:53:55.445Z,26.8
2019-03-28T02:54:45.644Z,26.4
2019-03-28T02:55:34.867Z,26.3
2019-03-28T02:56:26.074Z,26.1
2019-03-28T02:57:16.228Z,26
2019-03-28T02:58:05.284Z,25.9
2019-03-28T02:58:55.346Z,25.8
2019-03-28T02:59:45.484Z,25.7
2019-03-28T03:00:35.204Z,25.6
2019-03-28T03:01:29.813Z,25.5
2019-03-28T03:02:16.712Z,25.4
2019-03-28T03:03:06.058Z,25.3
2019-03-28T03:03:55.491Z,25.4
2019-03-28T03:07:26.064Z,25.2
2019-03-28T03:08:17.520Z,25.1
2019-03-28T03:09:07.528Z,25.1
2019-03-28T03:09:58.386Z,24.9
2019-03-28T03:10:47.654Z,24.9
2019-03-28T03:11:37.452Z,24.8
2019-03-28T03:12:27.712Z,24.7
2019-03-28T03:13:17.264Z,24.6
2019-03-28T03:14:07.258Z,24.9
2019-03-28T03:14:57.041Z,25
2019-03-28T03:15:47.663Z,25.4
2019-03-28T03:16:37.136Z,25.6
2019-03-28T03:17:26.662Z,25.8
2019-03-28T03:18:22.419Z,25.9
2019-03-28T03:19:08.314Z,26.2
2019-03-28T03:19:58.152Z,26.4
2019-03-28T03:20:48.535Z,26.6
2019-03-28T03:21:39.459Z,26.9
2019-03-28T03:22:27.363Z,27.1
2019-03-28T03:23:17.537Z,27.3
2019-03-28T03:24:07.315Z,27.3
2019-03-28T03:24:58.192Z,27.3
2019-03-28T03:25:47.652Z,26.8
2019-03-28T03:26:37.914Z,26.4
2019-03-28T03:27:28.249Z,26.4
2019-03-28T03:28:18.245Z,26.4
2019-03-28T03:29:08.471Z,26.6
2019-03-28T03:29:58.130Z,26.8
2019-03-28T03:30:48.643Z,26.9
2019-03-28T03:31:38.788Z,27.1
2019-03-28T03:32:28.916Z,27.3
2019-03-28T03:33:19.416Z,27.5
2019-03-28T03:34:11.694Z,27.7
2019-03-28T03:35:02.795Z,27.9
2019-03-28T03:35:48.575Z,28.1
2019-03-28T03:36:38.432Z,28.2
2019-03-28T03:37:28.183Z,28.4
2019-03-28T03:38:18.500Z,28.5
2019-03-28T03:39:08.370Z,28.6
2019-03-28T03:39:59.289Z,28.5
2019-03-28T03:40:48.634Z,28.4
2019-03-28T03:41:38.833Z,28.3
2019-03-28T03:42:29.360Z,28.1
2019-03-28T03:43:19.394Z,28.1
2019-03-28T03:44:09.814Z,27.9
2019-03-28T03:45:49.848Z,27.7
2019-03-28T03:46:39.075Z,27.6
2019-03-28T03:47:29.165Z,27.5
2019-03-28T03:48:20.114Z,27.1
2019-03-28T03:49:10.128Z,26.7
2019-03-28T03:50:01.356Z,26.4
2019-03-28T03:50:50.701Z,26.3
2019-03-28T03:51:40.636Z,26.1
2019-03-28T03:52:29.763Z,25.9
2019-03-28T03:53:19.796Z,25.9
2019-03-28T03:54:09.886Z,25.8
2019-03-28T03:55:00.545Z,25.7
2019-03-28T03:55:50.242Z,25.6
2019-03-28T03:56:40.661Z,25.5
2019-03-28T03:57:30.406Z,25.4
2019-03-28T03:58:27.795Z,25.3
2019-03-28T03:59:10.220Z,25.4
2019-03-28T04:00:00.016Z,25.4
2019-03-28T04:00:50.734Z,25.4
2019-03-28T04:01:40.446Z,25.3
2019-03-28T04:02:29.675Z,25.3
2019-03-28T04:03:19.978Z,25.1
2019-03-28T04:04:10.988Z,25.1
2019-03-28T04:05:06.061Z,24.9
2019-03-28T04:05:51.261Z,24.9
2019-03-28T04:06:40.061Z,24.8
2019-03-28T04:07:30.924Z,24.9
2019-03-28T04:08:21.685Z,25
2019-03-28T04:09:11.531Z,25.2
2019-03-28T04:10:01.608Z,25.6
2019-03-28T04:10:51.352Z,25.7
2019-03-28T04:11:41.311Z,25.9
2019-03-28T04:12:31.782Z,26.1
2019-03-28T04:13:20.757Z,26.3
2019-03-28T04:14:11.993Z,26.5
2019-03-28T04:15:01.988Z,26.8
2019-03-28T04:15:51.493Z,27
2019-03-28T04:16:42.066Z,27.2
2019-03-28T04:17:31.829Z,27.4
2019-03-28T04:18:27.428Z,27.6
2019-03-28T04:19:11.833Z,27.8
2019-03-28T04:20:03.773Z,27.9
2019-03-28T04:20:53.197Z,28.1
2019-03-28T04:21:41.860Z,28.3
2019-03-28T04:22:32.218Z,28.4
2019-03-28T04:23:22.102Z,28.5
2019-03-28T04:24:12.699Z,28.5
2019-03-28T04:25:03.109Z,28.4
2019-03-28T04:25:52.582Z,28.3
2019-03-28T04:26:41.362Z,28.3
2019-03-28T04:27:31.772Z,28.1
2019-03-28T04:28:42.413Z,28
2019-03-28T04:30:04.028Z,27.8
2019-03-28T04:30:52.345Z,27.6
2019-03-28T04:31:42.644Z,27.6
2019-03-28T04:32:32.933Z,27.4
2019-03-28T04:33:23.355Z,26.9
2019-03-28T04:34:18.854Z,26.6
2019-03-28T04:35:04.304Z,26.4
2019-03-28T04:35:54.247Z,26.2
2019-03-28T04:36:44.277Z,26.1
2019-03-28T04:37:34.179Z,25.9
2019-03-28T04:38:24.537Z,25.9
2019-03-28T04:39:13.117Z,25.8
2019-03-28T04:40:03.416Z,25.6
2019-03-28T04:40:53.841Z,25.6
2019-03-28T04:41:43.599Z,25.4
2019-03-28T04:42:33.041Z,25.4
2019-03-28T04:43:23.246Z,25.3
2019-03-28T04:44:13.297Z,25.4
2019-03-28T04:45:07.398Z,25.4
2019-03-28T04:45:53.779Z,25.4
2019-03-28T04:46:43.861Z,25.3
2019-03-28T04:47:34.216Z,25.2
2019-03-28T04:48:23.423Z,25.1
2019-03-28T04:49:17.194Z,25.1
2019-03-28T04:50:03.960Z,24.9
2019-03-28T04:50:54.058Z,24.8
2019-03-28T04:51:43.903Z,25
2019-03-28T04:52:37.738Z,25.1
2019-03-28T04:53:23.781Z,25.4
2019-03-28T04:54:17.210Z,25.7
2019-03-28T04:55:04.820Z,25.8
2019-03-28T04:55:54.730Z,26
2019-03-28T04:56:45.521Z,26.2
2019-03-28T04:57:35.863Z,26.4
2019-03-28T04:58:29.370Z,26.6
2019-03-28T04:59:15.949Z,26.9
2019-03-28T05:00:04.265Z,27.1
2019-03-28T05:00:54.753Z,27.3
2019-03-28T05:01:58.723Z,27.4
2019-03-28T05:02:36.269Z,27.7
2019-03-28T05:04:16.305Z,27.9
2019-03-28T05:05:06.386Z,28.1
2019-03-28T05:05:54.705Z,28.3
2019-03-28T05:06:46.439Z,28.4
2019-03-28T05:07:34.557Z,28.5
2019-03-28T05:08:24.300Z,28.6
2019-03-28T05:09:15.486Z,28.4
2019-03-28T05:10:05.447Z,28.3
2019-03-28T05:10:55.867Z,28.3
2019-03-28T05:11:44.919Z,28.1
2019-03-28T05:12:35.974Z,28
2019-03-28T05:13:27.019Z,27.9
2019-03-28T05:15:07.029Z,27.7
2019-03-28T05:15:56.239Z,27.6
2019-03-28T05:16:45.982Z,27.4
2019-03-28T05:17:35.776Z,27.3
2019-03-28T05:18:26.104Z,26.7
2019-03-28T05:19:16.202Z,26.4
2019-03-28T05:20:06.452Z,26.3
2019-03-28T05:20:56.556Z,26.1
2019-03-28T05:21:46.179Z,25.9
2019-03-28T05:22:36.433Z,25.8
2019-03-28T05:23:27.026Z,25.8
2019-03-28T05:24:16.278Z,25.6
2019-03-28T05:25:07.715Z,25.6
2019-03-28T05:25:57.719Z,25.4
2019-03-28T05:26:47.424Z,25.4
2019-03-28T05:27:37.343Z,25.3
2019-03-28T05:28:27.879Z,25.3
2019-03-28T05:29:17.176Z,25.6
2019-03-28T05:30:09.702Z,25.9
2019-03-28T05:30:57.096Z,26.1
2019-03-28T05:31:46.589Z,26.1
2019-03-28T05:32:36.666Z,26.3
2019-03-28T05:33:27.450Z,26.5
2019-03-28T05:34:17.779Z,26.7
2019-03-28T05:35:08.483Z,26.9
2019-03-28T05:35:58.066Z,27.2
2019-03-28T05:36:50.705Z,27.4
2019-03-28T05:37:37.960Z,27.6
2019-03-28T05:38:26.828Z,27.8
2019-03-28T05:39:17.419Z,27.9
2019-03-28T05:40:08.133Z,28.1
2019-03-28T05:40:57.488Z,28.3
2019-03-28T05:41:46.392Z,28.4
2019-03-28T05:42:38.158Z,28.6
2019-03-28T05:43:27.651Z,28.5
2019-03-28T05:44:17.713Z,28.4
2019-03-28T05:45:08.028Z,28.3
2019-03-28T05:45:58.141Z,28.2
2019-03-28T05:46:48.428Z,28.1
2019-03-28T05:47:38.915Z,27.9
2019-03-28T05:49:18.335Z,27.8
2019-03-28T05:50:08.732Z,27.6
2019-03-28T05:50:58.082Z,27.5
2019-03-28T05:51:48.525Z,27.4
2019-03-28T05:52:37.679Z,26.7
2019-03-28T05:53:29.399Z,26.4
2019-03-28T05:54:17.719Z,26.2
2019-03-28T05:55:11.937Z,26
2019-03-28T05:55:58.085Z,25.9
2019-03-28T05:56:49.142Z,25.8
2019-03-28T05:57:38.944Z,25.7
2019-03-28T05:58:29.020Z,25.6
2019-03-28T05:59:21.416Z,25.5
2019-03-28T06:00:09.092Z,25.4
2019-03-28T06:00:59.949Z,25.3
2019-03-28T06:01:49.477Z,25.2
2019-03-28T06:02:39.604Z,25.1
2019-03-28T06:05:27.851Z,25.8
2019-03-28T06:06:16.859Z,25.9
2019-03-28T06:07:21.286Z,26.1
2019-03-28T06:07:56.444Z,26.4
2019-03-28T06:09:02.282Z,26.5
2019-03-28T06:09:51.949Z,26.8
2019-03-28T06:10:26.654Z,27.1
2019-03-28T06:11:17.426Z,27.1
2019-03-28T06:12:07.066Z,27.3
2019-03-28T06:13:11.558Z,26.7
2019-03-28T06:14:02.406Z,26.1
2019-03-28T06:14:37.530Z,26.2
2019-03-28T06:15:27.369Z,26.3
2019-03-28T06:16:17.086Z,26.5
2019-03-28T06:17:20.955Z,26.7
2019-03-28T06:17:59.426Z,26.9
2019-03-28T06:18:48.790Z,27.1
2019-03-28T06:19:37.897Z,27.3
2019-03-28T06:20:26.843Z,27.5
2019-03-28T06:21:17.905Z,27.7
2019-03-28T06:22:08.273Z,27.9
2019-03-28T06:22:57.563Z,28.1
2019-03-28T06:23:48.120Z,28.3
2019-03-28T06:24:38.750Z,28.5
2019-03-28T06:25:30.996Z,28.6
2019-03-28T06:26:18.509Z,28.5
2019-03-28T06:27:08.490Z,28.4
2019-03-28T06:27:57.800Z,28.3
2019-03-28T06:28:46.765Z,28.2
2019-03-28T06:29:37.803Z,28.1
2019-03-28T06:30:28.080Z,28
2019-03-28T06:32:09.735Z,27.8
2019-03-28T06:33:01.713Z,27.6
2019-03-28T06:33:48.068Z,27.5
2019-03-28T06:34:38.152Z,27.4
2019-03-28T06:35:31.293Z,27.3
2019-03-28T06:36:19.907Z,27.2
2019-03-28T06:37:09.873Z,27.1
2019-03-28T06:38:01.800Z,27
2019-03-28T06:38:48.668Z,26.9
2019-03-28T06:39:41.732Z,26.8
2019-03-28T06:40:29.377Z,26.7
2019-03-28T06:41:18.668Z,26.6
2019-03-28T06:42:08.763Z,26.5
2019-03-28T06:42:59.069Z,26.4
2019-03-28T06:43:50.052Z,26.3
2019-03-28T06:44:39.156Z,26.3
2019-03-28T06:45:29.216Z,26.1
2019-03-28T06:46:19.309Z,26.1
2019-03-28T06:47:08.751Z,25.9
2019-03-28T06:47:59.679Z,25.9
2019-03-28T06:48:48.400Z,25.8
2019-03-28T06:49:39.061Z,25.7
2019-03-28T06:50:29.365Z,25.6
2019-03-28T06:51:19.599Z,25.5
2019-03-28T06:52:09.691Z,25.4
2019-03-28T06:52:59.492Z,24.9
2019-03-28T06:53:50.004Z,25
2019-03-28T06:54:39.980Z,25.3
2019-03-28T06:55:33.414Z,25.6
2019-03-28T06:56:21.273Z,25.7
2019-03-28T06:57:09.270Z,26
2019-03-28T06:57:59.926Z,26.2
2019-03-28T06:58:49.861Z,26.4
2019-03-28T06:59:46.631Z,26.8
2019-03-28T07:00:30.041Z,27.1
2019-03-28T07:01:20.564Z,27.3
2019-03-28T07:02:10.053Z,27.6
2019-03-28T07:05:33.600Z,28.4
2019-03-28T07:06:16.678Z,28.5
2019-03-28T07:07:07.163Z,28.5
2019-03-28T07:07:56.289Z,28.4
2019-03-28T07:08:46.380Z,28.3
2019-03-28T07:09:37.083Z,28.2
2019-03-28T07:10:26.874Z,28.1
2019-03-28T07:11:16.693Z,27.9
2019-03-28T07:12:56.547Z,27.7
2019-03-28T07:13:46.625Z,27.6
2019-03-28T07:14:37.302Z,27.5
2019-03-28T07:15:27.397Z,27.4
2019-03-28T07:16:16.555Z,27.3
2019-03-28T07:17:07.172Z,27.2
2019-03-28T07:17:57.022Z,27.1
2019-03-28T07:18:47.272Z,27
2019-03-28T07:19:37.423Z,26.9
2019-03-28T07:20:27.544Z,26.8
2019-03-28T07:21:16.767Z,26.7
2019-03-28T07:22:06.875Z,26.6
2019-03-28T07:22:57.261Z,26.5
2019-03-28T07:23:47.879Z,26.4
2019-03-28T07:24:37.633Z,26.3
2019-03-28T07:25:31.009Z,26.3
2019-03-28T07:26:17.741Z,26.2
2019-03-28T07:27:07.304Z,26.1
2019-03-28T07:27:57.396Z,26
2019-03-28T07:28:47.172Z,25.9
2019-03-28T07:29:53.645Z,25.8
2019-03-28T07:30:28.474Z,25.7
2019-03-28T07:31:18.379Z,25.6
2019-03-28T07:32:08.339Z,25.6
2019-03-28T07:32:58.054Z,25.4
2019-03-28T07:33:48.350Z,25.4
2019-03-28T07:34:37.134Z,25.3
2019-03-28T07:35:27.454Z,25.2
2019-03-28T07:36:17.964Z,25.1
2019-03-28T07:37:08.312Z,25
2019-03-28T07:37:57.921Z,24.9
2019-03-28T07:38:48.138Z,24.8
2019-03-28T07:39:38.633Z,24.8
2019-03-28T07:40:29.488Z,24.7
2019-03-28T07:41:21.698Z,24.3
2019-03-28T07:42:08.588Z,24.4
2019-03-28T07:42:59.130Z,24.8
2019-03-28T07:43:49.478Z,25.5
2019-03-28T07:44:42.577Z,25.9
2019-03-28T07:45:30.470Z,26
2019-03-28T07:46:18.475Z,26.2
2019-03-28T07:47:09.238Z,26.4
2019-03-28T07:48:00.010Z,26.6
2019-03-28T07:48:49.723Z,26.9
2019-03-28T07:49:42.588Z,26.9
2019-03-28T07:50:33.175Z,26.9
2019-03-28T07:51:19.593Z,26.9
2019-03-28T07:52:10.635Z,26.8
2019-03-28T07:53:00.897Z,26.7
2019-03-28T07:53:51.286Z,26.6
2019-03-28T07:54:40.814Z,26.5
2019-03-28T07:55:30.079Z,26.4
2019-03-28T07:56:20.177Z,26.3
2019-03-28T07:57:10.619Z,26.2
2019-03-28T07:57:59.705Z,26.1
2019-03-28T07:58:53.141Z,26
2019-03-28T07:59:43.844Z,25.9
2019-03-28T08:00:30.722Z,25.8
2019-03-28T08:01:24.299Z,25.8
2019-03-28T08:02:09.555Z,25.6
2019-03-28T08:03:04.185Z,25.6
2019-03-28T08:03:51.058Z,25.4
2019-03-28T08:04:40.499Z,25.4
2019-03-28T08:05:30.634Z,25.3
2019-03-28T08:06:23.209Z,25.3
2019-03-28T08:07:09.726Z,25.1
2019-03-28T08:08:00.527Z,25.1
2019-03-28T08:08:52.848Z,25
2019-03-28T08:09:45.611Z,24.9
2019-03-28T08:10:30.427Z,24.8
2019-03-28T08:11:22.716Z,24.8
2019-03-28T08:12:28.236Z,24.6
2019-03-28T08:13:01.351Z,24.6
2019-03-28T08:13:51.189Z,24.5
2019-03-28T08:14:41.627Z,24.4
2019-03-28T08:15:31.817Z,24.3
2019-03-28T08:16:20.551Z,24.3
2019-03-28T08:17:11.466Z,24.2
2019-03-28T08:18:02.001Z,24.1
2019-03-28T08:18:52.556Z,24.1
2019-03-28T08:19:46.311Z,23.9
2019-03-28T08:20:31.646Z,23.9
2019-03-28T08:21:22.056Z,23.8
2019-03-28T08:22:10.997Z,24.1
2019-03-28T08:23:01.333Z,24.4
2019-03-28T08:23:51.932Z,25.1
2019-03-28T08:24:41.708Z,25.6
2019-03-28T08:25:32.149Z,25.7
2019-03-28T08:26:22.107Z,25.9
2019-03-28T08:27:11.985Z,26.1
2019-03-28T08:28:05.210Z,26.4
2019-03-28T08:28:52.308Z,26.7
2019-03-28T08:29:42.387Z,26.9
2019-03-28T08:30:32.146Z,26.9
2019-03-28T08:31:23.630Z,26.9
2019-03-28T08:32:16.615Z,26.8
2019-03-28T08:33:03.385Z,26.7
2019-03-28T08:33:52.930Z,26.6
2019-03-28T08:34:42.710Z,26.5
2019-03-28T08:35:32.322Z,26.4
2019-03-28T08:36:22.587Z,26.3
2019-03-28T08:37:12.458Z,26.2
2019-03-28T08:38:03.020Z,26.1
2019-03-28T08:38:53.040Z,26
2019-03-28T08:39:46.482Z,25.9
2019-03-28T08:40:32.450Z,25.8
2019-03-28T08:41:23.728Z,25.8
2019-03-28T08:42:12.480Z,25.7
2019-03-28T08:43:02.807Z,25.6
2019-03-28T08:43:52.637Z,25.5
2019-03-28T08:44:43.891Z,25.4
2019-03-28T08:45:32.915Z,25.3
2019-03-28T08:46:23.025Z,25.2
2019-03-28T08:47:14.669Z,25.1
2019-03-28T08:48:03.439Z,25.1
2019-03-28T08:48:53.510Z,25
2019-03-28T08:49:43.572Z,24.9
2019-03-28T08:50:33.871Z,24.8
2019-03-28T08:51:27.031Z,24.8
2019-03-28T08:52:17.418Z,24.7
2019-03-28T08:53:03.077Z,24.6
2019-03-28T08:53:53.341Z,24.5
2019-03-28T08:54:43.606Z,24.4
2019-03-28T08:55:33.304Z,24.4
2019-03-28T08:56:23.269Z,24.3
2019-03-28T08:57:15.682Z,24.2
2019-03-28T08:58:04.238Z,24.1
2019-03-28T08:58:53.981Z,24.1
2019-03-28T08:59:43.973Z,23.9
2019-03-28T09:01:00.753Z,23.9
2019-03-28T09:01:24.449Z,24.1
2019-03-28T09:02:14.774Z,24.3
2019-03-28T09:03:04.002Z,24.8
2019-03-28T09:03:57.795Z,25.6
2019-03-28T09:04:44.878Z,25.6
2019-03-28T09:05:34.964Z,25.8
2019-03-28T09:06:26.621Z,26.1
2019-03-28T09:07:18.481Z,26.3
2019-03-28T09:08:05.603Z,26.6
2019-03-28T09:08:54.811Z,26.9
2019-03-28T09:09:45.707Z,26.9
2019-03-28T09:10:35.004Z,26.9
2019-03-28T09:11:28.670Z,26.8
2019-03-28T09:12:15.431Z,26.8
2019-03-28T09:13:05.721Z,26.7
2019-03-28T09:13:55.735Z,26.6
2019-03-28T09:14:45.933Z,26.5
2019-03-28T09:15:50.776Z,26.4
2019-03-28T09:16:25.655Z,26.3
2019-03-28T09:17:14.933Z,26.2
2019-03-28T09:18:08.221Z,26.1
2019-03-28T09:18:55.697Z,26
2019-03-28T09:19:47.633Z,25.9
2019-03-28T09:20:35.678Z,25.8
2019-03-28T09:21:26.120Z,25.7
2019-03-28T09:22:15.775Z,25.6
2019-03-28T09:23:06.204Z,25.6
2019-03-28T09:23:56.205Z,25.4
2019-03-28T09:24:46.272Z,25.4
2019-03-28T09:25:36.034Z,25.3
2019-03-28T09:26:26.585Z,25.3
2019-03-28T09:27:16.764Z,25.1
2019-03-28T09:28:05.645Z,25.1
2019-03-28T09:28:56.887Z,25
2019-03-28T09:29:45.590Z,24.9
2019-03-28T09:30:53.811Z,24.8
2019-03-28T09:31:28.686Z,24.7
2019-03-28T09:32:16.260Z,24.6
2019-03-28T09:33:05.706Z,24.6
2019-03-28T09:33:56.030Z,24.5
2019-03-28T09:34:46.509Z,24.4
2019-03-28T09:35:38.507Z,24.3
2019-03-28T09:36:27.874Z,24.3
2019-03-28T09:37:17.809Z,24.2
2019-03-28T09:38:07.239Z,24.1
2019-03-28T09:38:57.009Z,23.9
2019-03-28T09:39:47.620Z,24
2019-03-28T09:40:37.580Z,24.4
2019-03-28T09:41:27.550Z,25.1
2019-03-28T09:42:18.107Z,25.6
2019-03-28T09:43:07.689Z,25.6
2019-03-28T09:44:04.996Z,25.9
2019-03-28T09:44:48.264Z,26.2
2019-03-28T09:45:38.926Z,26.4
2019-03-28T09:46:27.046Z,26.8
2019-03-28T09:47:16.523Z,26.9
2019-03-28T09:48:11.392Z,26.9
2019-03-28T09:48:57.598Z,26.9
2019-03-28T09:49:47.893Z,26.8
2019-03-28T09:50:37.891Z,26.8
2019-03-28T09:51:27.554Z,26.6
2019-03-28T09:52:18.506Z,26.5
2019-03-28T09:53:09.601Z,26.4
2019-03-28T09:53:58.491Z,26.3
2019-03-28T09:54:47.821Z,26.3
2019-03-28T09:55:38.591Z,26.1
2019-03-28T09:56:28.603Z,26.1
2019-03-28T09:57:18.301Z,25.9
2019-03-28T09:58:08.969Z,25.9
2019-03-28T09:59:02.041Z,25.8
2019-03-28T09:59:48.787Z,25.7
2019-03-28T10:00:43.296Z,25.6
2019-03-28T10:01:28.896Z,25.5
2019-03-28T10:02:18.930Z,25.4
2019-03-28T10:03:08.351Z,25.3
2019-03-28T10:03:59.244Z,25.3
2019-03-28T10:06:26.130Z,25.1
2019-03-28T10:07:16.200Z,24.9
2019-03-28T10:08:05.900Z,24.9
2019-03-28T10:08:56.148Z,24.8
2019-03-28T10:09:50.177Z,24.7
2019-03-28T10:10:36.676Z,24.6
2019-03-28T10:11:25.702Z,24.6
2019-03-28T10:12:16.617Z,24.5
2019-03-28T10:13:06.879Z,24.4
2019-03-28T10:13:56.405Z,24.3
2019-03-28T10:14:47.245Z,24.3
2019-03-28T10:15:40.787Z,24.2
2019-03-28T10:16:27.390Z,23.8
2019-03-28T10:17:16.734Z,24
2019-03-28T10:18:07.003Z,24.4
2019-03-28T10:18:57.296Z,25.1
2019-03-28T10:19:48.733Z,25.3
2019-03-28T10:20:37.393Z,25.4
2019-03-28T10:21:27.484Z,25.8
2019-03-28T10:22:17.854Z,26
2019-03-28T10:23:07.860Z,26.3
2019-03-28T10:23:57.187Z,26.6
2019-03-28T10:24:47.961Z,26.9
2019-03-28T10:25:37.348Z,26.9
2019-03-28T10:26:27.516Z,26.9
2019-03-28T10:27:21.128Z,26.8
2019-03-28T10:28:07.782Z,26.8
2019-03-28T10:28:57.528Z,26.7
2019-03-28T10:29:47.305Z,26.6
2019-03-28T10:30:37.373Z,26.5
2019-03-28T10:31:27.963Z,26.4
2019-03-28T10:32:32.932Z,26.3
2019-03-28T10:33:07.675Z,26.1
2019-03-28T10:33:58.882Z,26.1
2019-03-28T10:34:47.556Z,26
2019-03-28T10:35:37.718Z,25.9
2019-03-28T10:36:31.192Z,25.8
2019-03-28T10:37:17.350Z,25.8
2019-03-28T10:38:08.480Z,25.6
2019-03-28T10:38:57.950Z,25.6
2019-03-28T10:39:48.127Z,25.5
2019-03-28T10:40:38.541Z,25.4
2019-03-28T10:41:33.684Z,25.3
2019-03-28T10:42:18.747Z,25.2
2019-03-28T10:43:08.602Z,25.2
2019-03-28T10:43:58.352Z,25.1
2019-03-28T10:44:48.922Z,25
2019-03-28T10:45:42.349Z,24.9
2019-03-28T10:46:28.760Z,24.8
2019-03-28T10:47:18.424Z,24.8
2019-03-28T10:48:09.165Z,24.7
2019-03-28T10:49:03.157Z,24.6
2019-03-28T10:49:50.157Z,24.6
2019-03-28T10:50:54.412Z,24.4
2019-03-28T10:51:29.900Z,24.4
2019-03-28T10:52:21.439Z,24.3
2019-03-28T10:53:09.277Z,24.2
2019-03-28T10:53:59.714Z,24
2019-03-28T10:54:49.194Z,24
2019-03-28T10:55:39.552Z,24.4
2019-03-28T10:56:32.431Z,25.1
2019-03-28T10:57:39.341Z,25.4
2019-03-28T10:58:27.175Z,25.6
2019-03-28T10:58:59.221Z,25.9
2019-03-28T10:59:49.706Z,26.1
2019-03-28T11:00:39.298Z,26.4
2019-03-28T11:01:59.408Z,26.7
2019-03-28T11:02:21.733Z,26.9
2019-03-28T11:03:12.150Z,26.9
2019-03-28T11:04:01.379Z,26.9
2019-03-28T11:04:51.396Z,26.8
2019-03-28T11:05:41.638Z,26.8
2019-03-28T11:06:30.753Z,26.6
2019-03-28T11:07:20.774Z,26.6
2019-03-28T11:08:11.140Z,26.4
2019-03-28T11:09:00.403Z,26.4
2019-03-28T11:09:50.965Z,26.3
2019-03-28T11:10:40.553Z,26.2
2019-03-28T11:11:31.895Z,26.1
2019-03-28T11:12:20.935Z,25.9
2019-03-28T11:13:15.323Z,25.9
2019-03-28T11:14:00.993Z,25.8
2019-03-28T11:14:54.642Z,25.7
2019-03-28T11:15:40.302Z,25.6
2019-03-28T11:16:32.150Z,25.6
2019-03-28T11:17:21.750Z,25.5
2019-03-28T11:18:11.595Z,25.4
2019-03-28T11:19:01.857Z,25.3
2019-03-28T11:19:55.773Z,25.3
2019-03-28T11:20:46.465Z,25.1
2019-03-28T11:21:35.726Z,25.1
2019-03-28T11:22:21.886Z,25
2019-03-28T11:23:12.569Z,24.9
2019-03-28T11:24:02.963Z,24.8
2019-03-28T11:24:55.800Z,24.8
2019-03-28T11:25:41.616Z,24.7
2019-03-28T11:26:33.445Z,24.6